createdAt,value
2023-05-10T00:01:47.569Z,17.20
2023-05-10T00:06:50.469Z,17.20
2023-05-10T00:12:00.352Z,17.20
2023-05-10T00:17:05.315Z,17.10
2023-05-10T00:22:08.210Z,17.20
2023-05-10T00:27:12.432Z,17.20
2023-05-10T00:32:15.826Z,17.20
2023-05-10T00:37:19.734Z,17.00
2023-05-10T00:42:24.249Z,17.10
2023-05-10T00:47:30.048Z,17.20
2023-05-10T00:52:33.114Z,17.10
2023-05-10T00:57:37.353Z,17.10
2023-05-10T01:02:40.669Z,17.00
2023-05-10T01:07:43.645Z,17.00
2023-05-10T01:12:49.235Z,17.10
2023-05-10T01:17:53.312Z,17.10
2023-05-10T01:23:28.521Z,17.00
2023-05-10T01:29:06.001Z,17.10
2023-05-10T01:34:14.962Z,17.10
2023-05-10T01:39:23.025Z,17.10
2023-05-10T01:44:37.027Z,17.00
2023-05-10T01:49:47.250Z,17.00
2023-05-10T01:54:57.928Z,17.00
2023-05-10T02:00:03.842Z,17.10
2023-05-10T02:05:20.818Z,17.20
2023-05-10T02:10:23.953Z,17.10
2023-05-10T02:15:29.462Z,17.10
2023-05-10T02:20:35.287Z,17.00
2023-05-10T02:25:39.698Z,16.80
2023-05-10T02:30:43.567Z,16.60
2023-05-10T02:35:49.077Z,16.50
2023-05-10T02:40:53.539Z,16.50
2023-05-10T02:45:56.726Z,16.50
2023-05-10T02:51:06.530Z,16.50
2023-05-10T02:56:16.368Z,16.70
2023-05-10T03:01:19.379Z,16.70
2023-05-10T03:06:24.766Z,16.80
2023-05-10T03:11:39.816Z,16.60
2023-05-10T03:16:48.791Z,16.70
2023-05-10T03:21:55.510Z,16.70
2023-05-10T03:27:03.633Z,16.70
2023-05-10T03:32:06.960Z,16.60
2023-05-10T03:37:11.670Z,16.60
2023-05-10T03:42:14.761Z,16.70
2023-05-10T03:47:17.743Z,16.80
2023-05-10T03:52:22.036Z,16.80
2023-05-10T03:57:25.026Z,16.70
2023-05-10T04:02:31.092Z,16.60
2023-05-10T04:07:37.734Z,16.50
2023-05-10T04:12:40.894Z,16.40
2023-05-10T04:17:43.882Z,16.30
2023-05-10T04:22:48.302Z,16.20
2023-05-10T04:27:51.227Z,16.30
2023-05-10T04:32:54.152Z,16.20
2023-05-10T04:38:00.477Z,16.20
2023-05-10T04:43:03.493Z,16.40
2023-05-10T04:48:07.077Z,16.40
2023-05-10T04:53:11.326Z,16.30
2023-05-10T04:58:14.235Z,16.40
2023-05-10T05:03:20.174Z,16.30
2023-05-10T05:08:25.006Z,16.10
2023-05-10T05:13:27.995Z,16.20
2023-05-10T05:18:31.126Z,16.10
2023-05-10T05:23:35.546Z,16.20
2023-05-10T05:28:39.193Z,16.10
2023-05-10T05:33:42.149Z,16.20
2023-05-10T05:38:46.605Z,16.10
2023-05-10T05:43:49.661Z,16.00
2023-05-10T05:48:52.683Z,16.10
2023-05-10T05:53:57.297Z,16.10
2023-05-10T05:59:00.314Z,16.10
2023-05-10T06:04:03.385Z,16.10
2023-05-10T06:09:07.785Z,16.00
2023-05-10T06:14:10.953Z,16.10
2023-05-10T06:19:14.015Z,16.10
2023-05-10T06:24:18.449Z,16.10
2023-05-10T06:29:21.619Z,16.20
2023-05-10T06:34:24.765Z,16.20
2023-05-10T06:39:30.368Z,16.30
2023-05-10T06:44:33.503Z,16.20
2023-05-10T06:49:36.824Z,16.20
2023-05-10T06:54:41.332Z,16.30
2023-05-10T06:59:44.404Z,16.20
2023-05-10T07:04:49.535Z,16.20
2023-05-10T07:09:54.270Z,16.30
2023-05-10T07:14:57.356Z,16.20
2023-05-10T07:20:00.985Z,16.30
2023-05-10T07:25:05.962Z,16.30
2023-05-10T07:30:10.408Z,16.30
2023-05-10T07:35:13.518Z,16.30
2023-05-10T07:40:17.866Z,16.40
2023-05-10T07:45:20.961Z,16.40
2023-05-10T07:50:24.176Z,16.40
2023-05-10T07:55:28.621Z,16.30
2023-05-10T08:00:31.781Z,16.30
2023-05-10T08:05:35.853Z,16.30
2023-05-10T08:10:40.277Z,16.70
2023-05-10T08:15:43.278Z,16.60
2023-05-10T08:20:46.443Z,16.70
2023-05-10T08:25:50.977Z,16.70
2023-05-10T08:30:54.255Z,16.70
2023-05-10T08:35:57.294Z,16.90
2023-05-10T08:41:04.039Z,17.00
2023-05-10T08:46:08.308Z,16.90
2023-05-10T08:51:14.877Z,16.60
2023-05-10T08:56:20.751Z,15.80
2023-05-10T09:01:24.459Z,15.50
2023-05-10T09:06:27.965Z,15.70
2023-05-10T09:11:32.597Z,15.70
2023-05-10T09:16:35.763Z,15.90
2023-05-10T09:21:39.622Z,16.10
2023-05-10T09:26:50.490Z,16.30
2023-05-10T09:31:55.776Z,16.20
2023-05-10T09:37:01.901Z,16.20
2023-05-10T09:42:07.680Z,16.30
2023-05-10T09:47:10.702Z,16.60
2023-05-10T09:52:13.629Z,17.00
2023-05-10T09:57:23.248Z,17.00
2023-05-10T10:02:31.238Z,17.10
2023-05-10T10:07:35.053Z,17.20
2023-05-10T10:12:39.469Z,17.50
2023-05-10T10:17:43.226Z,17.60
2023-05-10T10:22:46.659Z,17.70
2023-05-10T10:28:01.506Z,17.60
2023-05-10T10:33:32.688Z,17.40
2023-05-10T10:38:40.640Z,17.40
2023-05-10T10:43:44.906Z,17.40
2023-05-10T10:48:50.789Z,17.70
2023-05-10T10:53:53.746Z,17.60
2023-05-10T10:59:02.648Z,17.70
2023-05-10T11:04:21.764Z,17.60
2023-05-10T11:09:27.005Z,17.70
2023-05-10T11:14:34.330Z,17.80
2023-05-10T11:19:40.049Z,17.70
2023-05-10T11:24:59.135Z,17.50
2023-05-10T11:30:04.960Z,17.40
2023-05-10T11:35:12.371Z,17.30
2023-05-10T11:40:15.819Z,17.90
2023-05-10T11:45:20.428Z,18.00
2023-05-10T11:50:30.721Z,18.20
2023-05-10T11:55:36.037Z,18.20
2023-05-10T12:00:40.463Z,18.40
2023-05-10T12:05:43.466Z,18.50
2023-05-10T12:10:46.691Z,18.30
2023-05-10T12:15:50.950Z,18.50
2023-05-10T12:20:54.682Z,18.60
2023-05-10T12:26:04.496Z,18.80
2023-05-10T12:31:09.392Z,18.70
2023-05-10T12:36:13.565Z,18.70
2023-05-10T12:41:18.727Z,18.70
2023-05-10T12:46:26.262Z,18.60
2023-05-10T12:51:29.334Z,18.20
2023-05-10T12:56:32.253Z,18.00
2023-05-10T13:01:36.668Z,18.30
2023-05-10T13:06:39.773Z,18.40
2023-05-10T13:11:42.988Z,18.60
2023-05-10T13:16:47.295Z,18.60
2023-05-10T13:21:50.255Z,18.20
2023-05-10T13:26:53.151Z,18.30
2023-05-10T13:31:57.630Z,18.00
2023-05-10T13:37:00.689Z,18.10
2023-05-10T13:42:04.005Z,18.70
2023-05-10T13:47:08.344Z,19.00
2023-05-10T13:52:11.286Z,19.20
2023-05-10T13:57:14.961Z,19.30
2023-05-10T14:02:28.578Z,19.50
2023-05-10T14:07:31.671Z,19.60
2023-05-10T14:12:34.551Z,19.70
2023-05-10T14:17:38.925Z,19.60
2023-05-10T14:22:41.943Z,19.80
2023-05-10T14:27:57.817Z,19.60
2023-05-10T14:33:02.293Z,19.30
2023-05-10T14:38:05.308Z,19.00
2023-05-10T14:43:08.223Z,18.50
2023-05-10T14:48:16.286Z,18.30
2023-05-10T14:53:19.316Z,18.30
2023-05-10T14:58:24.232Z,18.70
2023-05-10T15:03:28.655Z,18.90
2023-05-10T15:08:32.217Z,18.90
2023-05-10T15:13:35.165Z,19.10
2023-05-10T15:18:39.443Z,18.90
2023-05-10T15:23:44.428Z,18.60
2023-05-10T15:28:49.516Z,18.40
2023-05-10T15:33:53.862Z,18.10
2023-05-10T15:39:01.920Z,18.10
2023-05-10T15:44:05.383Z,18.00
2023-05-10T15:49:09.743Z,18.20
2023-05-10T15:54:12.684Z,18.10
2023-05-10T15:59:15.684Z,18.30
2023-05-10T16:04:36.407Z,18.30
2023-05-10T16:09:39.395Z,18.30
2023-05-10T16:14:42.353Z,18.40
2023-05-10T16:19:47.376Z,18.40
2023-05-10T16:24:53.547Z,18.30
2023-05-10T16:29:58.101Z,18.20
2023-05-10T16:35:02.513Z,18.10
2023-05-10T16:40:12.237Z,18.10
2023-05-10T16:45:16.459Z,18.00
2023-05-10T16:50:20.901Z,17.90
2023-05-10T16:55:26.295Z,17.60
2023-05-10T17:00:31.739Z,17.40
2023-05-10T17:05:36.744Z,17.40
2023-05-10T17:10:41.857Z,17.30
2023-05-10T17:15:47.193Z,17.40
2023-05-10T17:20:52.307Z,17.40
2023-05-10T17:25:55.229Z,17.40
2023-05-10T17:30:58.496Z,17.50
2023-05-10T17:36:02.816Z,17.80
2023-05-10T17:41:05.744Z,18.20
2023-05-10T17:46:09.044Z,18.20
2023-05-10T17:51:13.420Z,18.30
2023-05-10T17:56:16.419Z,18.40
2023-05-10T18:01:20.429Z,18.30
2023-05-10T18:06:25.077Z,18.30
2023-05-10T18:11:28.050Z,18.20
2023-05-10T18:16:31.076Z,18.30
2023-05-10T18:21:35.714Z,18.20
2023-05-10T18:26:38.793Z,18.00
2023-05-10T18:31:42.942Z,17.70
2023-05-10T18:36:47.816Z,17.60
2023-05-10T18:41:58.803Z,17.60
2023-05-10T18:47:01.927Z,17.60
2023-05-10T18:52:24.389Z,17.60
2023-05-10T18:57:27.408Z,17.20
2023-05-10T19:02:30.500Z,17.20
2023-05-10T19:07:34.910Z,17.00
2023-05-10T19:12:37.826Z,16.80
2023-05-10T19:17:41.995Z,16.80
2023-05-10T19:23:22.327Z,16.80
2023-05-10T19:28:26.825Z,16.80
2023-05-10T19:33:29.851Z,16.80
2023-05-10T19:38:32.787Z,16.90
2023-05-10T19:44:11.422Z,16.80
2023-05-10T19:49:29.591Z,17.00
2023-05-10T19:55:09.875Z,16.70
2023-05-10T20:00:15.544Z,16.80
2023-05-10T20:05:36.776Z,16.50
2023-05-10T20:10:39.740Z,16.60
2023-05-10T20:15:44.332Z,16.60
2023-05-10T20:20:47.318Z,16.50
2023-05-10T20:25:50.417Z,16.70
2023-05-10T20:30:56.247Z,16.60
2023-05-10T20:35:59.185Z,16.60
2023-05-10T20:41:02.278Z,16.90
2023-05-10T20:46:06.604Z,16.80
2023-05-10T20:51:09.980Z,16.70
2023-05-10T20:56:12.957Z,16.60
2023-05-10T21:01:17.277Z,16.50
2023-05-10T21:06:20.191Z,16.50
2023-05-10T21:11:23.095Z,16.40
2023-05-10T21:16:27.473Z,16.40
2023-05-10T21:21:30.571Z,16.30
2023-05-10T21:26:33.484Z,16.30
2023-05-10T21:31:37.913Z,16.20
2023-05-10T21:36:40.949Z,16.10
2023-05-10T21:41:43.856Z,16.10
2023-05-10T21:46:48.338Z,16.10
2023-05-10T21:51:51.253Z,16.20
2023-05-10T21:56:54.246Z,16.10
2023-05-10T22:01:58.678Z,16.10
2023-05-10T22:07:01.660Z,16.10
2023-05-10T22:12:04.724Z,16.20
2023-05-10T22:17:09.147Z,16.20
2023-05-10T22:22:12.249Z,16.20
2023-05-10T22:27:15.251Z,16.20
2023-05-10T22:32:19.964Z,16.10
2023-05-10T22:37:23.024Z,16.10
2023-05-10T22:42:26.015Z,16.10
2023-05-10T22:47:30.321Z,16.00
2023-05-10T22:52:33.367Z,16.10
2023-05-10T22:57:36.778Z,16.10
2023-05-10T23:02:41.070Z,16.10
2023-05-10T23:07:44.009Z,16.10
2023-05-10T23:12:46.940Z,16.10
2023-05-10T23:17:51.394Z,16.00
2023-05-10T23:22:54.521Z,16.10
2023-05-10T23:27:57.492Z,16.00
2023-05-10T23:33:01.774Z,16.00
2023-05-10T23:38:04.702Z,16.10
2023-05-10T23:43:07.662Z,16.10
2023-05-10T23:48:13.124Z,16.00
2023-05-10T23:53:16.755Z,16.00
2023-05-10T23:58:19.668Z,16.00
